Corsicana, Texas
Current Conditions -  °F | °C
As of 9:53 AM on Saturday 25 Oct 2014 (Local Time) from KCRS Reporting Station
Clear Clear  
Wind Chill: 72°   Ceiling: Unl
Heat Index: 72°   Visibility: 10mi
Dew Point: 59°   Wind: 8mph
Humidity: 64%   Direction: 210°SSW
Pressure: 30.19"   Gusts: NA
Location:  32.09°N, 96.46°W
Report Text: KCRS 251453Z AUTO 21007KT 10SM CLR 22/15 A3019 RMK AO2 SLP220 T02220150 53014
Loading
Personal Weather Stations






























Interactive Weather Map
Tropical Storm Tracking
New forecast layout! Learn more

10-Day Weather Forecast

Advertisements
Track Severe Weather on mobile